Time;durP1;ratioP1;P1;durP2;ratioP2;P2;SDS_P1;SDS_P2;PMS_P1;PMS_P2;Temp;Humidity;BMP_temperature;BMP_pressure;BME280_temperature;BME280_humidity;BME280_pressure;Samples;Min_cycle;Max_cycle;Signal;HPM_P1;HPM_P2
2023/07/01 00:01:54;;;;;;;;;;;;;;;24.76;57.28;100275.11;2323739;76;50363;-75
2023/07/01 00:04:59;;;;;;;;;;;;;;;24.76;57.21;100280.53;2296681;76;50303;-75
2023/07/01 00:07:59;;;;;;;;;;;;;;;24.76;57.21;100275.96;2297084;76;22615;-75
2023/07/01 00:11:01;;;;;;;;;;;;;;;24.75;57.23;100275.65;2323741;76;51463;-74
2023/07/01 00:14:02;;;;;;;;;;;;;;;24.77;57.23;100277.59;2296593;76;52347;-75
2023/07/01 00:17:04;;;;;;;;;;;;;;;24.78;57.25;100275.71;2323373;75;51370;-75
2023/07/01 00:20:07;;;;;;;;;;;;;;;24.78;57.22;100273.82;2296644;76;51559;-75
2023/07/01 00:23:08;;;;;;;;;;;;;;;24.79;57.23;100282.80;2296953;76;50276;-75
2023/07/01 00:26:10;;;;;;;;;;;;;;;24.76;57.13;100269.70;2274675;75;52091;-75
2023/07/01 00:29:11;;;;;;;;;;;;;;;24.76;57.14;100265.64;2313960;75;50575;-75
2023/07/01 00:32:13;;;;;;;;;;;;;;;24.77;57.27;100274.08;2296900;76;50405;-74
2023/07/01 00:35:15;;;;;;;;;;;;;;;24.76;57.21;100260.23;2323860;76;50204;-73
2023/07/01 00:38:16;;;;;;;;;;;;;;;24.75;57.41;100264.01;2296555;76;50963;-74
2023/07/01 00:41:20;;;;;;;;;;;;;;;24.75;57.28;100259.41;2326765;75;51501;-74
2023/07/01 00:44:22;;;;;;;;;;;;;;;24.77;57.26;100261.90;2311537;76;50246;-74
2023/07/01 00:47:23;;;;;;;;;;;;;;;24.76;57.26;100258.38;2338566;75;50331;-75
2023/07/01 00:50:25;;;;;;;;;;;;;;;24.75;57.23;100253.19;2311350;76;50894;-77
2023/07/01 00:53:26;;;;;;;;;;;;;;;24.75;57.22;100251.83;2338705;76;50350;-74
2023/07/01 00:56:28;;;;;;;;;;;;;;;24.73;57.27;100247.17;2351314;73;50593;-75
2023/07/01 00:59:30;;;;;;;;;;;;;;;24.73;57.25;100244.47;2337792;75;51480;-75
2023/07/01 01:02:35;;;;;;;;;;;;;;;24.72;57.25;100240.13;2322892;75;52324;-75
2023/07/01 01:05:38;;;;;;;;;;;;;;;24.72;57.23;100243.66;2349179;75;51466;-75
2023/07/01 01:08:44;;;;;;;;;;;;;;;24.74;57.26;100246.14;2375641;75;51513;-74
2023/07/01 01:11:46;;;;;;;;;;;;;;;24.73;57.32;100239.88;2376954;75;50383;-75
2023/07/01 01:14:47;;;;;;;;;;;;;;;24.72;57.24;100232.83;2348925;75;51038;-75
2023/07/01 01:17:49;;;;;;;;;;;;;;;24.74;57.20;100233.96;2376950;75;51560;-75
2023/07/01 01:20:50;;;;;;;;;;;;;;;24.74;57.24;100233.42;2377275;75;51353;-75
2023/07/01 01:24:00;;;;;;;;;;;;;;;24.74;57.16;100221.78;2377177;75;51466;-75
2023/07/01 01:27:01;;;;;;;;;;;;;;;24.75;57.17;100222.07;2370859;75;50409;-74
2023/07/01 01:30:03;;;;;;;;;;;;;;;24.73;57.14;100219.59;2370502;75;51507;-74
2023/07/01 01:33:06;;;;;;;;;;;;;;;24.73;57.06;100215.53;2365291;75;51383;-74
2023/07/01 01:36:15;;;;;;;;;;;;;;;24.73;56.99;100220.12;2327135;76;50655;-79
2023/07/01 01:39:17;;;;;;;;;;;;;;;24.73;57.01;100209.30;2327644;76;51695;-78
2023/07/01 01:42:20;;;;;;;;;;;;;;;24.74;56.93;100210.96;2342545;75;50581;-75
2023/07/01 01:45:21;;;;;;;;;;;;;;;24.74;57.06;100208.26;2342072;76;49269;-73
2023/07/01 01:48:23;;;;;;;;;;;;;;;24.73;57.06;100202.00;2341094;76;50674;-75
2023/07/01 01:51:25;;;;;;;;;;;;;;;24.72;57.20;100203.61;2311598;75;52291;-74
2023/07/01 01:54:26;;;;;;;;;;;;;;;24.71;56.98;100195.17;2345335;74;51475;-74
2023/07/01 01:57:28;;;;;;;;;;;;;;;24.71;57.17;100193.82;2336676;75;51458;-74
2023/07/01 02:00:31;;;;;;;;;;;;;;;24.70;57.24;100188.95;2349713;75;51409;-74
2023/07/01 02:03:32;;;;;;;;;;;;;;;24.69;57.24;100190.55;2291734;75;51006;-75
2023/07/01 02:06:34;;;;;;;;;;;;;;;24.70;57.22;100181.36;2349618;75;50630;-74
2023/07/01 02:09:36;;;;;;;;;;;;;;;24.72;57.33;100179.25;2349748;75;50334;-75
2023/07/01 02:12:38;;;;;;;;;;;;;;;24.71;57.23;100185.70;2317508;75;51512;-75
2023/07/01 02:15:40;;;;;;;;;;;;;;;24.70;57.26;100177.31;2291566;75;52598;-75
2023/07/01 02:18:41;;;;;;;;;;;;;;;24.71;57.25;100179.79;2349524;75;51505;-75
2023/07/01 02:21:43;;;;;;;;;;;;;;;24.69;57.26;100175.14;2349772;75;51404;-75
2023/07/01 02:24:44;;;;;;;;;;;;;;;24.70;57.30;100173.25;2348114;75;50277;-76
2023/07/01 02:27:46;;;;;;;;;;;;;;;24.69;57.28;100171.61;2288226;77;51166;-76
2023/07/01 02:30:47;;;;;;;;;;;;;;;24.70;57.27;100169.19;2280902;77;50612;-74
2023/07/01 02:33:54;;;;;;;;;;;;;;;24.69;57.25;100169.72;2312127;77;50210;-75
2023/07/01 02:36:55;;;;;;;;;;;;;;;24.70;57.31;100174.06;2311688;77;50178;-75
2023/07/01 02:39:57;;;;;;;;;;;;;;;24.71;57.41;100169.47;2280160;77;52471;-75
2023/07/01 02:42:58;;;;;;;;;;;;;;;24.69;57.33;100175.67;2270982;77;50209;-75
2023/07/01 02:46:00;;;;;;;;;;;;;;;24.71;57.46;100164.06;2289889;77;50136;-75
2023/07/01 02:49:02;;;;;;;;;;;;;;;24.69;57.46;100160.79;2289890;77;50692;-75
2023/07/01 02:52:04;;;;;;;;;;;;;;;24.69;57.42;100163.50;2237234;77;50966;-74
2023/07/01 02:55:06;;;;;;;;;;;;;;;24.68;57.48;100154.53;2281702;76;51310;-76
2023/07/01 02:58:08;;;;;;;;;;;;;;;24.70;57.50;100142.14;2266174;77;54022;-75
2023/07/01 03:01:09;;;;;;;;;;;;;;;24.69;57.53;100141.31;2290190;77;51435;-76
2023/07/01 03:04:12;;;;;;;;;;;;;;;24.69;57.37;100139.97;2261841;77;51280;-75
2023/07/01 03:07:14;;;;;;;;;;;;;;;24.70;57.47;100146.19;2261522;77;50669;-74
2023/07/01 03:10:15;;;;;;;;;;;;;;;24.69;57.47;100148.08;2261771;77;51405;-75
2023/07/01 03:13:17;;;;;;;;;;;;;;;24.69;57.44;100137.26;2261696;77;50679;-74
2023/07/01 03:16:20;;;;;;;;;;;;;;;24.68;57.54;100134.78;2289858;77;51392;-74
2023/07/01 03:19:23;;;;;;;;;;;;;;;24.68;57.53;100127.48;2290487;77;22326;-75
2023/07/01 03:22:24;;;;;;;;;;;;;;;24.67;57.58;100127.73;2262054;77;51542;-75
2023/07/01 03:25:26;;;;;;;;;;;;;;;24.66;57.56;100117.95;2277484;76;51549;-75
2023/07/01 03:28:28;;;;;;;;;;;;;;;24.66;57.58;100116.60;2297948;76;51384;-74
2023/07/01 03:31:29;;;;;;;;;;;;;;;24.66;57.63;100120.16;2297862;76;51400;-74
2023/07/01 03:34:31;;;;;;;;;;;;;;;24.64;57.73;100119.56;2327127;76;51385;-75
2023/07/01 03:37:32;;;;;;;;;;;;;;;24.64;57.75;100119.56;2297438;76;51492;-75
2023/07/01 03:40:34;;;;;;;;;;;;;;;24.65;57.75;100121.73;2297721;76;51089;-75
2023/07/01 03:43:35;;;;;;;;;;;;;;;24.65;57.86;100122.55;2334613;75;50323;-75
2023/07/01 03:46:37;;;;;;;;;;;;;;;24.66;57.64;100125.56;2341431;76;50242;-75
2023/07/01 03:49:39;;;;;;;;;;;;;;;24.66;57.59;100125.56;2341487;76;50370;-74
2023/07/01 03:52:40;;;;;;;;;;;;;;;24.67;57.54;100134.50;2341533;75;51429;-76
2023/07/01 03:55:42;;;;;;;;;;;;;;;24.66;57.64;100130.97;2354034;75;51488;-74
2023/07/01 03:58:44;;;;;;;;;;;;;;;24.65;57.62;100132.02;2337983;75;51377;-75
2023/07/01 04:01:45;;;;;;;;;;;;;;;24.65;57.60;100131.20;2317311;76;51424;-76
2023/07/01 04:04:47;;;;;;;;;;;;;;;24.67;57.54;100126.38;2317157;76;51129;-76
2023/07/01 04:07:49;;;;;;;;;;;;;;;24.68;57.58;100121.25;2336745;76;51500;-75
2023/07/01 04:10:50;;;;;;;;;;;;;;;24.69;57.57;100129.14;2336841;75;50594;-74
2023/07/01 04:13:52;;;;;;;;;;;;;;;24.69;57.56;100128.33;2317186;76;51500;-76
2023/07/01 04:16:53;;;;;;;;;;;;;;;24.69;57.54;100127.80;2316870;76;51364;-75
2023/07/01 04:19:56;;;;;;;;;;;;;;;24.69;57.52;100126.97;2317100;76;51383;-74
2023/07/01 04:22:57;;;;;;;;;;;;;;;24.70;57.54;100123.20;2336898;74;50702;-75
2023/07/01 04:25:59;;;;;;;;;;;;;;;24.71;57.57;100124.83;2323831;75;51532;-76
2023/07/01 04:29:01;;;;;;;;;;;;;;;24.71;57.60;100122.97;2307536;75;51674;-75
2023/07/01 04:32:02;;;;;;;;;;;;;;;24.71;57.59;100119.42;2366495;75;50423;-74
2023/07/01 04:35:04;;;;;;;;;;;;;;;24.70;57.58;100108.31;2333790;75;51421;-75
2023/07/01 04:38:06;;;;;;;;;;;;;;;24.69;57.57;100107.50;2366153;75;50581;-75
2023/07/01 04:41:07;;;;;;;;;;;;;;;24.72;57.62;100106.20;2307680;75;51016;-74
2023/07/01 04:44:09;;;;;;;;;;;;;;;24.72;57.61;100114.31;2341993;75;51596;-74
2023/07/01 04:47:11;;;;;;;;;;;;;;;24.71;57.58;100108.59;2351292;75;51397;-75
2023/07/01 04:50:13;;;;;;;;;;;;;;;24.70;57.58;100103.72;2379734;73;50745;-75
2023/07/01 04:53:15;;;;;;;;;;;;;;;24.71;57.42;100104.03;2378775;74;50380;-77
2023/07/01 04:56:16;;;;;;;;;;;;;;;24.72;57.32;100102.96;2327365;75;50361;-76
2023/07/01 04:59:18;;;;;;;;;;;;;;;24.72;57.33;100096.20;2377549;75;50292;-75
2023/07/01 05:02:20;;;;;;;;;;;;;;;24.74;57.18;100096.79;2377302;75;51537;-76
2023/07/01 05:05:22;;;;;;;;;;;;;;;24.74;57.57;100099.49;2348964;75;51269;-75
2023/07/01 05:08:23;;;;;;;;;;;;;;;24.74;57.29;100100.84;2376969;75;50683;-75
2023/07/01 05:11:25;;;;;;;;;;;;;;;24.75;57.30;100092.19;2376994;75;51531;-73
2023/07/01 05:14:27;;;;;;;;;;;;;;;24.81;56.96;100096.64;2377190;75;50264;-75
2023/07/01 05:17:29;;;;;;;;;;;;;;;24.85;56.52;100089.70;2322125;75;51054;-74
2023/07/01 05:20:30;;;;;;;;;;;;;;;24.89;55.85;100088.18;2377087;75;50689;-75
2023/07/01 05:23:32;;;;;;;;;;;;;;;24.90;55.73;100087.11;2370152;73;51361;-74
2023/07/01 05:26:34;;;;;;;;;;;;;;;24.93;55.39;100096.09;2366477;75;50337;-74
2023/07/01 05:29:36;;;;;;;;;;;;;;;24.97;55.25;100090.52;2324513;75;52557;-73
2023/07/01 05:32:38;;;;;;;;;;;;;;;25.18;54.72;100092.31;2349655;75;51565;-73
2023/07/01 05:35:39;;;;;;;;;;;;;;;25.25;53.36;100092.15;2379010;74;51491;-73
2023/07/01 05:38:41;;;;;;;;;;;;;;;25.25;52.53;100097.56;2364411;75;50288;-73
2023/07/01 05:41:42;;;;;;;;;;;;;;;25.25;52.07;100094.86;2329201;75;51136;-73
2023/07/01 05:44:44;;;;;;;;;;;;;;;25.29;51.35;100094.14;2326056;75;50313;-73
2023/07/01 05:47:46;;;;;;;;;;;;;;;25.34;50.77;100094.24;2328193;73;50436;-73
2023/07/01 05:50:47;;;;;;;;;;;;;;;25.39;50.55;100095.69;2351057;74;51417;-73
2023/07/01 05:53:49;;;;;;;;;;;;;;;25.41;50.14;100090.86;2279067;73;51880;-74
2023/07/01 05:56:50;;;;;;;;;;;;;;;25.43;49.93;100087.89;2326676;75;51663;-74
2023/07/01 05:59:52;;;;;;;;;;;;;;;25.45;49.92;100091.19;2342030;75;51444;-74
2023/07/01 06:02:53;;;;;;;;;;;;;;;25.48;49.35;100081.22;2341861;75;51416;-74
2023/07/01 06:05:55;;;;;;;;;;;;;;;25.49;49.53;100080.70;2338444;75;51335;-75
2023/07/01 06:08:57;;;;;;;;;;;;;;;25.55;49.01;100091.91;2343530;75;50213;-74
2023/07/01 06:11:58;;;;;;;;;;;;;;;25.57;48.83;100089.79;2330384;75;49916;-73
2023/07/01 06:15:00;;;;;;;;;;;;;;;25.57;48.14;100088.44;2347493;75;50329;-74
2023/07/01 06:18:01;;;;;;;;;;;;;;;25.54;47.84;100088.92;2311456;75;51613;-74
2023/07/01 06:21:06;;;;;;;;;;;;;;;25.48;47.40;100085.81;2318976;76;51397;-74
2023/07/01 06:24:07;;;;;;;;;;;;;;;25.49;47.24;100079.35;2304837;75;22480;-73
2023/07/01 06:27:09;;;;;;;;;;;;;;;25.47;46.76;100084.19;2304377;76;50588;-74
2023/07/01 06:30:11;;;;;;;;;;;;;;;25.46;46.64;100079.81;2304516;76;49656;-74
2023/07/01 06:33:12;;;;;;;;;;;;;;;25.33;47.02;100079.06;2304125;76;51369;-75
2023/07/01 06:36:17;;;;;;;;;;;;;;;25.27;47.56;100080.02;2304357;75;51594;-75
2023/07/01 06:39:17;;;;;;;;;;;;;;;25.33;47.53;100083.12;2334042;76;22304;-75
2023/07/01 06:42:19;;;;;;;;;;;;;;;25.40;47.43;100076.20;2304342;76;52335;-73
2023/07/01 06:45:20;;;;;;;;;;;;;;;25.51;47.24;100077.20;2329816;74;50262;-75
2023/07/01 06:48:22;;;;;;;;;;;;;;;25.51;47.27;100075.84;2320999;75;50164;-74
2023/07/01 06:51:24;;;;;;;;;;;;;;;25.51;47.47;100077.20;2333874;75;50674;-73
2023/07/01 06:54:25;;;;;;;;;;;;;;;25.58;47.93;100079.23;2333744;75;50138;-72
2023/07/01 06:57:28;;;;;;;;;;;;;;;25.62;47.32;100073.09;2361280;75;50323;-72
2023/07/01 07:00:30;;;;;;;;;;;;;;;25.64;46.72;100066.90;2334833;74;51504;-72
2023/07/01 07:03:32;;;;;;;;;;;;;;;25.59;46.97;100064.64;2363483;74;51521;-73
2023/07/01 07:06:34;;;;;;;;;;;;;;;25.60;47.01;100063.56;2363496;75;51566;-73
2023/07/01 07:09:36;;;;;;;;;;;;;;;25.52;46.58;100058.55;2336117;75;50195;-73
2023/07/01 07:12:37;;;;;;;;;;;;;;;25.43;45.93;100047.27;2363634;75;50222;-73
2023/07/01 07:15:39;;;;;;;;;;;;;;;25.39;45.18;100053.71;2326077;75;50125;-72
2023/07/01 07:18:40;;;;;;;;;;;;;;;25.36;45.28;100050.68;2327049;75;50232;-73
2023/07/01 07:21:42;;;;;;;;;;;;;;;25.31;44.58;100047.34;2344753;75;50312;-72
2023/07/01 07:24:43;;;;;;;;;;;;;;;25.26;44.85;100045.07;2336497;75;50589;-74
2023/07/01 07:27:45;;;;;;;;;;;;;;;25.25;44.94;100046.94;2363551;75;50686;-72
2023/07/01 07:30:47;;;;;;;;;;;;;;;25.21;45.12;100041.73;2335864;75;51130;-72
2023/07/01 07:33:48;;;;;;;;;;;;;;;25.20;45.34;100038.72;2336046;75;50692;-73
2023/07/01 07:36:50;;;;;;;;;;;;;;;25.22;44.97;100037.95;2335431;75;53446;-73
2023/07/01 07:39:53;;;;;;;;;;;;;;;25.24;44.86;100032.30;2335975;75;50253;-73
2023/07/01 07:42:55;;;;;;;;;;;;;;;25.26;45.01;100035.06;2309934;75;50004;-73
2023/07/01 07:45:56;;;;;;;;;;;;;;;25.28;45.24;100032.94;2330343;75;50574;-72
2023/07/01 07:48:58;;;;;;;;;;;;;;;25.31;45.42;100024.86;2341529;75;51411;-73
2023/07/01 07:52:01;;;;;;;;;;;;;;;25.31;45.60;100028.92;2317056;76;51303;-73
2023/07/01 07:55:02;;;;;;;;;;;;;;;25.29;45.66;100030.50;2317056;76;51684;-73
2023/07/01 07:58:04;;;;;;;;;;;;;;;25.26;45.90;100025.58;2316837;75;50227;-73
2023/07/01 08:01:05;;;;;;;;;;;;;;;25.28;46.08;100031.58;2337008;76;50333;-73
2023/07/01 08:04:07;;;;;;;;;;;;;;;25.31;46.22;100022.15;2336818;75;50235;-73
2023/07/01 08:07:10;;;;;;;;;;;;;;;25.31;46.31;100012.13;2290984;76;51609;-74
2023/07/01 08:10:11;;;;;;;;;;;;;;;25.34;46.39;100022.47;2336897;76;51530;-73
2023/07/01 08:13:14;;;;;;;;;;;;;;;25.35;46.44;100015.16;2317123;76;49999;-72
2023/07/01 08:16:15;;;;;;;;;;;;;;;25.33;46.59;100011.36;2338001;74;50655;-72
2023/07/01 08:19:17;;;;;;;;;;;;;;;25.35;46.66;100010.56;2320758;75;50201;-73
2023/07/01 08:22:19;;;;;;;;;;;;;;;25.35;46.69;100013.27;2331549;75;50219;-72
2023/07/01 08:25:20;;;;;;;;;;;;;;;25.34;46.71;100003.52;2363905;75;51508;-73
2023/07/01 08:28:22;;;;;;;;;;;;;;;25.33;46.79;100001.89;2363883;75;51360;-72
2023/07/01 08:31:24;;;;;;;;;;;;;;;25.33;46.78;100001.89;2305611;75;52494;-72
2023/07/01 08:34:25;;;;;;;;;;;;;;;25.33;46.89;99999.17;2364095;75;51374;-73
2023/07/01 08:37:27;;;;;;;;;;;;;;;25.33;46.94;100006.45;2331454;75;51396;-73
2023/07/01 08:40:29;;;;;;;;;;;;;;;25.34;47.01;99994.58;2364165;74;51589;-73
2023/07/01 08:43:30;;;;;;;;;;;;;;;25.32;47.04;99997.52;2331441;74;52383;-73
2023/07/01 08:46:32;;;;;;;;;;;;;;;25.31;47.02;99989.11;2356006;75;51581;-73
2023/07/01 08:49:34;;;;;;;;;;;;;;;25.33;47.06;99997.82;2332600;73;51454;-74
2023/07/01 08:52:37;;;;;;;;;;;;;;;25.34;47.07;99981.84;2325995;76;50350;-73
2023/07/01 08:55:39;;;;;;;;;;;;;;;25.32;47.16;99988.58;2294873;76;52373;-73
2023/07/01 08:58:41;;;;;;;;;;;;;;;25.32;47.10;99973.68;2325803;76;51447;-73
2023/07/01 09:01:43;;;;;;;;;;;;;;;25.32;47.11;99969.08;2326062;76;51510;-72
2023/07/01 09:04:45;;;;;;;;;;;;;;;25.32;47.06;99969.08;2325904;76;51563;-72
2023/07/01 09:07:46;;;;;;;;;;;;;;;25.31;47.11;99975.58;2325780;75;52588;-73
2023/07/01 09:10:48;;;;;;;;;;;;;;;25.29;47.19;99967.41;2325867;76;50274;-72
2023/07/01 09:13:52;;;;;;;;;;;;;;;25.29;47.22;99965.52;2294802;76;51468;-72
2023/07/01 09:16:53;;;;;;;;;;;;;;;25.26;47.21;99963.84;2325353;75;51540;-72
2023/07/01 09:19:56;;;;;;;;;;;;;;;25.25;47.24;99960.28;2310556;75;52393;-73
2023/07/01 09:23:03;;;;;;;;;;;;;;;25.25;47.30;99957.58;2359024;75;50403;-74
2023/07/01 09:26:14;;;;;;;;;;;;;;;25.25;47.25;99956.77;2363309;75;22477;-74
2023/07/01 09:29:15;;;;;;;;;;;;;;;25.21;47.38;99953.73;2361650;75;22311;-73
2023/07/01 09:32:28;;;;;;;;;;;;;;;25.20;47.33;99951.56;2364148;75;22380;-72
2023/07/01 09:35:30;;;;;;;;;;;;;;;25.20;47.34;99935.32;2364075;75;22669;-75
2023/07/01 09:38:32;;;;;;;;;;;;;;;25.20;47.32;99942.59;2361544;75;51573;-74
2023/07/01 09:41:34;;;;;;;;;;;;;;;25.18;47.35;99944.75;2364031;75;50311;-73
2023/07/01 09:44:36;;;;;;;;;;;;;;;25.16;47.40;99930.63;2331275;75;51113;-73
2023/07/01 09:47:37;;;;;;;;;;;;;;;25.16;47.43;99931.45;2335474;75;50187;-73
2023/07/01 09:50:40;;;;;;;;;;;;;;;25.16;47.41;99923.86;2359410;75;50323;-73
2023/07/01 09:53:42;;;;;;;;;;;;;;;25.17;47.33;99922.78;2356290;74;51563;-73
2023/07/01 09:56:43;;;;;;;;;;;;;;;25.14;47.43;99918.65;2338402;75;52506;-73
2023/07/01 09:59:45;;;;;;;;;;;;;;;25.15;47.40;99914.05;2356290;75;51351;-73
2023/07/01 10:02:47;;;;;;;;;;;;;;;25.15;47.46;99909.98;2356269;75;50683;-74
2023/07/01 10:05:50;;;;;;;;;;;;;;;25.12;47.50;99903.17;2356260;75;50314;-73
2023/07/01 10:08:52;;;;;;;;;;;;;;;25.11;47.51;99904.25;2311983;75;51389;-73
2023/07/01 10:11:53;;;;;;;;;;;;;;;25.12;47.59;99905.06;2338789;75;50334;-73
2023/07/01 10:14:55;;;;;;;;;;;;;;;25.14;47.55;99902.95;2356230;75;51384;-72
2023/07/01 10:17:56;;;;;;;;;;;;;;;25.16;47.60;99883.25;2360369;74;51482;-73
2023/07/01 10:21:16;;;;;;;;;;;;;;;25.15;47.57;99893.74;2378787;73;51381;-72
2023/07/01 10:24:20;;;;;;;;;;;;;;;25.16;47.62;99883.25;2354459;74;51522;-73
2023/07/01 10:27:40;;;;;;;;;;;;;;;25.15;47.62;99881.56;2355110;75;51402;-73
2023/07/01 10:30:44;;;;;;;;;;;;;;;25.16;47.56;99885.96;2354323;75;51465;-73
2023/07/01 10:33:47;;;;;;;;;;;;;;;25.15;47.58;99870.23;2354209;74;51452;-73
2023/07/01 10:37:06;;;;;;;;;;;;;;;25.18;47.47;99860.82;2336149;75;52357;-73
2023/07/01 10:40:12;;;;;;;;;;;;;;;25.15;47.55;99845.02;2313216;77;51418;-73
2023/07/01 10:43:18;;;;;;;;;;;;;;;25.11;47.58;99843.89;2313242;77;51512;-73
2023/07/01 10:46:28;;;;;;;;;;;;;;;25.14;47.56;99853.67;2273596;77;49969;-73
2023/07/01 10:49:26;;;;;;;;;;;;;;;25.12;47.71;99843.63;2243909;79;22807;-73
2023/07/01 10:52:27;;;;;;;;;;;;;;;25.12;47.60;99831.98;2277670;78;50193;-73
2023/07/01 10:55:31;;;;;;;;;;;;;;;25.14;47.62;99842.03;2240684;79;51371;-73
2023/07/01 10:58:32;;;;;;;;;;;;;;;25.08;47.69;99824.90;2240224;79;50758;-73
2023/07/01 11:01:47;;;;;;;;;;;;;;;25.06;47.78;99827.56;2267776;78;52422;-73
2023/07/01 11:04:59;;;;;;;;;;;;;;;25.05;47.82;99824.55;2218141;79;50367;-72
2023/07/01 11:07:58;;;;;;;;;;;;;;;25.09;47.84;99817.05;2278688;78;22357;-72
2023/07/01 11:10:59;;;;;;;;;;;;;;;25.10;47.84;99824.63;2240612;79;51542;-72
2023/07/01 11:14:02;;;;;;;;;;;;;;;25.09;47.79;99807.58;2230285;78;52515;-73
2023/07/01 11:17:06;;;;;;;;;;;;;;;25.09;47.82;99807.58;2280701;78;51203;-72
2023/07/01 11:20:08;;;;;;;;;;;;;;;25.09;47.85;99812.98;2262038;78;51452;-72
2023/07/01 11:23:10;;;;;;;;;;;;;;;25.10;47.84;99813.80;2295111;77;50274;-72
2023/07/01 11:26:13;;;;;;;;;;;;;;;25.10;47.84;99802.97;2343508;75;52568;-73
2023/07/01 11:29:17;;;;;;;;;;;;;;;25.10;47.86;99798.91;2344184;75;50279;-73
2023/07/01 11:32:19;;;;;;;;;;;;;;;25.11;47.75;99791.09;2374637;75;50342;-74
2023/07/01 11:35:21;;;;;;;;;;;;;;;25.10;47.73;99782.16;2374558;75;50279;-74
2023/07/01 11:38:23;;;;;;;;;;;;;;;25.10;47.77;99784.88;2317406;75;51203;-73
2023/07/01 11:41:25;;;;;;;;;;;;;;;25.09;47.72;99787.27;2374624;75;51465;-73
2023/07/01 11:44:27;;;;;;;;;;;;;;;25.10;47.69;99781.32;2374599;75;50336;-73
2023/07/01 11:47:28;;;;;;;;;;;;;;;25.11;47.72;99768.09;2369584;74;50570;-73
2023/07/01 11:50:30;;;;;;;;;;;;;;;25.08;47.74;99770.76;2303939;75;49439;-72
2023/07/01 11:53:32;;;;;;;;;;;;;;;25.10;47.77;99770.49;2326268;73;50217;-74
2023/07/01 11:56:33;;;;;;;;;;;;;;;25.11;47.82;99769.44;2297479;76;51407;-74
2023/07/01 11:59:35;;;;;;;;;;;;;;;25.10;47.76;99761.86;2294368;76;50362;-74
2023/07/01 12:02:37;;;;;;;;;;;;;;;25.11;47.68;99759.43;2294533;76;52370;-73
2023/07/01 12:05:38;;;;;;;;;;;;;;;25.10;47.81;99750.19;2294690;76;51428;-73
2023/07/01 12:08:56;;;;;;;;;;;;;;;25.09;47.73;99750.73;2325767;75;51524;-74
2023/07/01 12:11:58;;;;;;;;;;;;;;;25.06;47.67;99753.94;2326023;75;50642;-73
2023/07/01 12:15:03;;;;;;;;;;;;;;;25.06;47.55;99746.36;2294734;76;51024;-73
2023/07/01 12:18:27;;;;;;;;;;;;;;;25.07;47.62;99739.86;2294396;76;51459;-73
2023/07/01 12:21:28;;;;;;;;;;;;;;;25.07;47.51;99747.45;2325984;75;22447;-73
2023/07/01 12:24:30;;;;;;;;;;;;;;;25.07;47.61;99738.52;2345448;74;51520;-73
2023/07/01 12:27:33;;;;;;;;;;;;;;;25.06;47.58;99735.53;2322096;75;51011;-72
2023/07/01 12:30:34;;;;;;;;;;;;;;;25.05;47.60;99729.81;2364177;75;50733;-72
2023/07/01 12:33:36;;;;;;;;;;;;;;;25.05;47.59;99743.34;2331713;75;51402;-72
2023/07/01 12:36:38;;;;;;;;;;;;;;;25.06;47.46;99728.22;2363759;74;50279;-73
2023/07/01 12:39:40;;;;;;;;;;;;;;;25.06;47.53;99726.87;2331392;75;50882;-73
2023/07/01 12:42:42;;;;;;;;;;;;;;;25.08;47.49;99726.09;2364145;75;50191;-72
2023/07/01 12:45:43;;;;;;;;;;;;;;;25.09;47.40;99730.42;2364109;75;51564;-72
2023/07/01 12:48:45;;;;;;;;;;;;;;;25.11;47.35;99731.55;2331641;75;51402;-72
2023/07/01 12:51:46;;;;;;;;;;;;;;;25.12;47.29;99723.70;2364181;75;51462;-71
2023/07/01 12:54:48;;;;;;;;;;;;;;;25.10;47.17;99725.31;2333168;75;51454;-72
2023/07/01 12:57:50;;;;;;;;;;;;;;;25.09;47.30;99725.02;2350712;75;51443;-73
2023/07/01 13:00:51;;;;;;;;;;;;;;;25.08;47.23;99707.69;2307225;76;51412;-73
2023/07/01 13:03:53;;;;;;;;;;;;;;;25.12;47.06;99720.99;2307222;76;51108;-72
2023/07/01 13:06:54;;;;;;;;;;;;;;;25.08;47.08;99721.22;2307031;76;50235;-72
2023/07/01 13:09:58;;;;;;;;;;;;;;;25.08;47.17;99710.39;2341544;76;51609;-71
2023/07/01 13:13:00;;;;;;;;;;;;;;;25.09;47.19;99711.48;2341680;76;50640;-71
2023/07/01 13:16:02;;;;;;;;;;;;;;;25.12;46.92;99704.20;2311013;73;52570;-72
2023/07/01 13:19:04;;;;;;;;;;;;;;;25.12;46.87;99700.15;2347732;75;51508;-72
2023/07/01 13:22:06;;;;;;;;;;;;;;;25.15;46.59;99689.35;2364336;75;50628;-72
2023/07/01 13:25:07;;;;;;;;;;;;;;;25.13;46.52;99701.80;2331821;75;50268;-72
2023/07/01 13:28:09;;;;;;;;;;;;;;;25.09;46.45;99703.36;2331415;75;52382;-72
2023/07/01 13:31:12;;;;;;;;;;;;;;;25.08;46.35;99696.86;2364223;75;51421;-72
2023/07/01 13:34:13;;;;;;;;;;;;;;;25.09;46.35;99695.23;2364104;75;50208;-73
2023/07/01 13:37:17;;;;;;;;;;;;;;;25.08;46.28;99691.45;2331587;75;50227;-73
2023/07/01 13:40:18;;;;;;;;;;;;;;;25.06;46.31;99688.16;2331242;75;51106;-73
2023/07/01 13:43:20;;;;;;;;;;;;;;;25.01;46.41;99690.80;2331675;75;50891;-73
2023/07/01 13:46:22;;;;;;;;;;;;;;;25.03;46.38;99694.89;2361686;75;50319;-71
2023/07/01 13:49:24;;;;;;;;;;;;;;;25.05;46.20;99681.09;2339954;75;50195;-71
2023/07/01 13:52:25;;;;;;;;;;;;;;;25.04;46.16;99688.40;2307014;75;52403;-73
2023/07/01 13:55:28;;;;;;;;;;;;;;;25.03;46.05;99688.67;2341765;76;51428;-72
2023/07/01 13:58:29;;;;;;;;;;;;;;;25.01;46.18;99686.20;2341458;76;52321;-71
2023/07/01 14:01:31;;;;;;;;;;;;;;;24.99;46.25;99683.73;2341705;76;50617;-72
2023/07/01 14:04:34;;;;;;;;;;;;;;;24.99;46.29;99678.31;2307038;76;51427;-72
2023/07/01 14:07:37;;;;;;;;;;;;;;;24.97;46.41;99680.48;2306720;76;50660;-72
2023/07/01 14:10:40;;;;;;;;;;;;;;;24.96;46.43;99674.76;2341638;76;51527;-73
2023/07/01 14:13:41;;;;;;;;;;;;;;;24.95;46.50;99669.08;2341660;75;50361;-72
2023/07/01 14:16:43;;;;;;;;;;;;;;;24.97;46.52;99670.16;2310298;75;51539;-72
2023/07/01 14:19:44;;;;;;;;;;;;;;;24.99;46.50;99676.15;2354876;75;51323;-73
2023/07/01 14:22:47;;;;;;;;;;;;;;;24.97;46.51;99666.95;2364158;75;51376;-73
2023/07/01 14:25:51;;;;;;;;;;;;;;;24.98;46.61;99672.63;2332247;75;51555;-72
2023/07/01 14:28:57;;;;;;;;;;;;;;;24.99;46.59;99661.27;2332150;75;49963;-72
2023/07/01 14:31:56;;;;;;;;;;;;;;;24.99;46.63;99654.50;2330772;75;22484;-72
2023/07/01 14:34:58;;;;;;;;;;;;;;;24.99;46.74;99658.56;2331649;75;51405;-72
2023/07/01 14:37:59;;;;;;;;;;;;;;;24.97;46.75;99652.06;2363801;75;50344;-73
2023/07/01 14:41:01;;;;;;;;;;;;;;;24.96;46.88;99650.41;2331601;75;51543;-75
2023/07/01 14:44:03;;;;;;;;;;;;;;;24.96;46.88;99654.46;2364172;75;50240;-72
2023/07/01 14:47:04;;;;;;;;;;;;;;;24.97;46.89;99648.51;2358402;75;51560;-72
2023/07/01 14:50:06;;;;;;;;;;;;;;;24.95;46.92;99651.48;2303125;76;50786;-73
2023/07/01 14:53:08;;;;;;;;;;;;;;;24.97;46.91;99652.06;2276083;76;50935;-73
2023/07/01 14:56:09;;;;;;;;;;;;;;;24.96;46.87;99647.70;2301763;76;50338;-73
2023/07/01 14:59:11;;;;;;;;;;;;;;;24.97;46.90;99666.10;2333262;76;50224;-72
2023/07/01 15:02:13;;;;;;;;;;;;;;;24.97;46.94;99662.88;2333406;76;50589;-73
2023/07/01 15:05:14;;;;;;;;;;;;;;;24.95;46.95;99660.95;2276450;76;52739;-73
2023/07/01 15:08:16;;;;;;;;;;;;;;;24.96;46.91;99663.94;2301690;76;50215;-72
2023/07/01 15:11:18;;;;;;;;;;;;;;;24.96;46.86;99669.34;2333264;76;50626;-73
2023/07/01 15:14:20;;;;;;;;;;;;;;;24.98;46.79;99667.22;2301881;76;51522;-71
2023/07/01 15:17:22;;;;;;;;;;;;;;;24.98;46.81;99663.16;2311256;75;51087;-73
2023/07/01 15:20:24;;;;;;;;;;;;;;;24.98;46.87;99687.52;2338227;76;51497;-74
2023/07/01 15:23:26;;;;;;;;;;;;;;;24.98;46.83;99675.88;2337035;75;50752;-75
2023/07/01 15:26:27;;;;;;;;;;;;;;;24.98;46.87;99693.47;2336967;76;50213;-72
2023/07/01 15:29:29;;;;;;;;;;;;;;;24.94;46.93;99679.59;2317203;76;51076;-72
2023/07/01 15:32:30;;;;;;;;;;;;;;;24.95;46.90;99681.25;2337001;76;50584;-73
2023/07/01 15:35:32;;;;;;;;;;;;;;;24.95;46.99;99677.19;2337058;75;50407;-73
2023/07/01 15:38:34;;;;;;;;;;;;;;;24.93;47.03;99674.45;2336690;76;51400;-72
2023/07/01 15:41:35;;;;;;;;;;;;;;;24.92;46.95;99677.70;2291457;76;51496;-75